Time;durP1;ratioP1;P1;durP2;ratioP2;P2;SDS_P1;SDS_P2;PMS_P1;PMS_P2;Temp;Humidity;BMP_temperature;BMP_pressure;BME280_temperature;BME280_humidity;BME280_pressure;Samples;Min_cycle;Max_cycle;Signal;HPM_P1;HPM_P2
2023/10/23 00:00:46;;;;;;;16.90;12.00;;;;;;;12.33;100.00;100220.73;105192;1274;99794;-80
2023/10/23 00:03:43;;;;;;;17.00;12.30;;;;;;;12.32;100.00;100225.07;105698;1273;98978;-80
2023/10/23 00:06:28;;;;;;;19.40;12.70;;;;;;;12.30;100.00;100225.48;105775;1273;96647;-80
2023/10/23 00:09:14;;;;;;;16.90;13.40;;;;;;;12.29;100.00;100229.37;105349;1273;96581;-79
2023/10/23 00:11:59;;;;;;;19.60;13.70;;;;;;;12.28;100.00;100231.84;104776;1273;100596;-78
2023/10/23 00:14:45;;;;;;;18.00;13.60;;;;;;;12.29;100.00;100235.48;104790;1276;99646;-79
2023/10/23 00:17:31;;;;;;;19.90;14.10;;;;;;;12.30;100.00;100239.11;105143;1273;99024;-79
2023/10/23 00:20:16;;;;;;;20.40;15.60;;;;;;;12.31;100.00;100242.05;105110;1273;96576;-79
2023/10/23 00:23:02;;;;;;;23.20;16.10;;;;;;;12.32;100.00;100246.51;105223;1276;95938;-80
2023/10/23 00:25:47;;;;;;;24.10;17.20;;;;;;;12.34;100.00;100247.00;105250;1276;100753;-78
2023/10/23 00:28:33;;;;;;;27.40;17.60;;;;;;;12.35;100.00;100252.41;105687;1273;99914;-79
2023/10/23 00:31:19;;;;;;;25.60;18.40;;;;;;;12.35;100.00;100249.35;105554;1276;99016;-79
2023/10/23 00:34:04;;;;;;;24.50;18.30;;;;;;;12.36;100.00;100244.20;105224;1273;97312;-79
2023/10/23 00:36:50;;;;;;;25.10;18.90;;;;;;;12.34;100.00;100246.42;105058;1276;98321;-79
2023/10/23 00:39:35;;;;;;;26.00;18.00;;;;;;;12.33;100.00;100246.05;105147;1276;100085;-80
2023/10/23 00:42:22;;;;;;;29.30;18.50;;;;;;;12.32;100.00;100249.07;105226;1272;99155;-80
2023/10/23 00:45:07;;;;;;;26.00;16.30;;;;;;;12.31;100.00;100253.16;105473;1273;98732;-79
2023/10/23 00:47:53;;;;;;;25.90;16.10;;;;;;;12.29;100.00;100256.92;105582;1274;96453;-80
2023/10/23 00:50:38;;;;;;;21.00;15.10;;;;;;;12.28;100.00;100258.15;105262;1273;97083;-79
2023/10/23 00:53:27;;;;;;;18.60;14.40;;;;;;;12.28;100.00;100259.59;105743;1273;101853;-80
2023/10/23 00:56:12;;;;;;;25.30;15.70;;;;;;;12.29;100.00;100268.36;106039;1273;100204;-79
2023/10/23 00:59:00;;;;;;;23.30;15.50;;;;;;;12.30;100.00;100273.17;105809;1273;97888;-80
2023/10/23 01:01:46;;;;;;;22.60;14.00;;;;;;;12.29;100.00;100281.50;105106;1276;97463;-81
2023/10/23 01:04:32;;;;;;;18.90;12.90;;;;;;;12.26;100.00;100286.04;105732;1273;96548;-80
2023/10/23 01:07:18;;;;;;;16.90;11.10;;;;;;;12.23;100.00;100289.71;105644;1272;101203;-79
2023/10/23 01:10:04;;;;;;;11.60;10.10;;;;;;;12.19;100.00;100297.57;105665;1273;99063;-80
2023/10/23 01:12:53;;;;;;;12.40;10.30;;;;;;;12.15;100.00;100298.80;105673;1273;97888;-79
2023/10/23 01:15:39;;;;;;;13.50;10.80;;;;;;;12.12;100.00;100299.80;105505;1271;98089;-79
2023/10/23 01:18:24;;;;;;;15.50;13.10;;;;;;;12.07;100.00;100300.64;105683;1274;96493;-80
2023/10/23 01:21:10;;;;;;;14.60;12.10;;;;;;;12.03;100.00;100309.34;105582;1278;101308;-79
2023/10/23 01:23:58;;;;;;;20.10;14.80;;;;;;;12.01;100.00;100313.21;105689;1273;99873;-80
2023/10/23 01:26:44;;;;;;;18.10;13.20;;;;;;;11.98;100.00;100311.86;105826;1276;99067;-81
2023/10/23 01:29:30;;;;;;;16.60;12.20;;;;;;;11.96;100.00;100311.68;105625;1276;96554;-79
2023/10/23 01:32:15;;;;;;;21.20;15.20;;;;;;;11.96;100.00;100313.58;105118;1276;96657;-79
2023/10/23 01:35:01;;;;;;;19.30;13.40;;;;;;;11.94;100.00;100311.30;105136;1274;100105;-79
2023/10/23 01:37:47;;;;;;;18.30;15.70;;;;;;;11.93;100.00;100318.93;105061;1273;100123;-80
2023/10/23 01:40:32;;;;;;;23.80;15.30;;;;;;;11.92;100.00;100319.64;105075;1276;97733;-79
2023/10/23 01:43:18;;;;;;;21.00;15.90;;;;;;;11.89;100.00;100324.33;105107;1274;97649;-80
2023/10/23 01:46:04;;;;;;;19.60;14.70;;;;;;;11.87;100.00;100326.36;105058;1272;97237;-80
2023/10/23 01:48:49;;;;;;;21.50;15.20;;;;;;;11.85;100.00;100325.97;105066;1275;101396;-79
2023/10/23 01:51:34;;;;;;;20.00;14.50;;;;;;;11.84;100.00;100321.02;105119;1275;99304;-79
2023/10/23 01:54:20;;;;;;;19.20;14.00;;;;;;;11.82;100.00;100320.88;105089;1274;98621;-80
2023/10/23 01:57:05;;;;;;;20.20;14.50;;;;;;;11.81;100.00;100320.30;105104;1273;96644;-80
2023/10/23 01:59:52;;;;;;;20.60;14.40;;;;;;;11.83;100.00;100324.36;105456;1279;97096;-80
2023/10/23 02:02:38;;;;;;;16.50;12.60;;;;;;;11.84;100.00;100325.32;105758;1273;100079;-80
2023/10/23 02:05:23;;;;;;;18.10;13.90;;;;;;;11.82;100.00;100325.75;105588;1276;99843;-80
2023/10/23 02:08:08;;;;;;;18.80;13.80;;;;;;;11.81;100.00;100328.60;105626;1276;97781;-80
2023/10/23 02:10:54;;;;;;;17.70;12.50;;;;;;;11.81;100.00;100328.98;105432;1276;96555;-80
2023/10/23 02:13:40;;;;;;;19.50;13.90;;;;;;;11.80;100.00;100332.45;105553;1274;97172;-80
2023/10/23 02:16:25;;;;;;;19.60;12.70;;;;;;;11.80;100.00;100336.11;105568;1272;100022;-80
2023/10/23 02:19:10;;;;;;;19.00;13.80;;;;;;;11.79;100.00;100337.72;105645;1273;100464;-80
2023/10/23 02:21:56;;;;;;;19.20;14.30;;;;;;;11.78;100.00;100342.80;105697;1273;98970;-80
2023/10/23 02:24:42;;;;;;;19.20;14.00;;;;;;;11.79;100.00;100342.02;105636;1273;96580;-80
2023/10/23 02:27:27;;;;;;;18.90;14.30;;;;;;;11.79;100.00;100342.88;105063;1272;96647;-80
2023/10/23 02:30:13;;;;;;;25.50;15.40;;;;;;;11.79;100.00;100341.81;105319;1276;100195;-79
2023/10/23 02:32:59;;;;;;;22.40;15.10;;;;;;;11.80;100.00;100344.16;105583;1276;99198;-80
2023/10/23 02:35:45;;;;;;;24.20;17.30;;;;;;;11.82;100.00;100349.62;105061;1274;97871;-80
2023/10/23 02:38:31;;;;;;;24.10;17.60;;;;;;;11.83;100.00;100348.88;105167;1272;96613;-80
2023/10/23 02:41:16;;;;;;;24.90;18.40;;;;;;;11.83;100.00;100353.74;105088;1276;97176;-80
2023/10/23 02:44:01;;;;;;;24.60;18.60;;;;;;;11.83;100.00;100358.34;105149;1274;100076;-80
2023/10/23 02:46:47;;;;;;;26.00;19.80;;;;;;;11.86;100.00;100354.73;105058;1276;99276;-80
2023/10/23 02:49:32;;;;;;;23.70;18.40;;;;;;;11.90;100.00;100351.92;105200;1276;97858;-80
2023/10/23 02:52:18;;;;;;;25.70;19.10;;;;;;;11.91;100.00;100353.16;105115;1273;96743;-80
2023/10/23 02:55:04;;;;;;;22.80;17.10;;;;;;;11.93;100.00;100353.71;105694;1276;96621;-79
2023/10/23 02:57:50;;;;;;;22.30;18.00;;;;;;;11.91;100.00;100357.59;105560;1274;100062;-79
2023/10/23 03:00:37;;;;;;;25.40;17.20;;;;;;;11.90;100.00;100363.20;105556;1273;99237;-79
2023/10/23 03:03:22;;;;;;;24.50;17.40;;;;;;;11.90;100.00;100368.73;105585;1273;97827;-80
2023/10/23 03:06:08;;;;;;;24.50;18.00;;;;;;;11.90;100.00;100374.42;105577;1276;96840;-79
2023/10/23 03:08:53;;;;;;;31.40;20.00;;;;;;;11.90;100.00;100371.28;105208;1276;97535;-79
2023/10/23 03:11:39;;;;;;;32.20;22.00;;;;;;;11.91;100.00;100372.94;105194;1273;101506;-79
2023/10/23 03:14:25;;;;;;;28.70;21.00;;;;;;;11.91;100.00;100374.93;105096;1273;99117;-79
2023/10/23 03:17:11;;;;;;;29.60;20.40;;;;;;;11.89;100.00;100368.81;105537;1274;97796;-80
2023/10/23 03:19:57;;;;;;;26.80;19.50;;;;;;;11.90;100.00;100374.27;105532;1274;97435;-79
2023/10/23 03:22:43;;;;;;;30.70;19.90;;;;;;;11.90;100.00;100379.13;105624;1273;97153;-80
2023/10/23 03:25:29;;;;;;;31.50;21.10;;;;;;;11.90;100.00;100378.77;105563;1273;100089;-79
2023/10/23 03:28:14;;;;;;;29.90;21.10;;;;;;;11.91;100.00;100378.60;105712;1273;100392;-80
2023/10/23 03:31:01;;;;;;;26.10;18.90;;;;;;;11.91;100.00;100378.81;105607;1274;97797;-79
2023/10/23 03:33:46;;;;;;;27.10;18.60;;;;;;;11.92;100.00;100379.39;105606;1273;96657;-79
2023/10/23 03:36:33;;;;;;;32.60;19.10;;;;;;;11.91;100.00;100382.16;105088;1274;97150;-79
2023/10/23 03:39:18;;;;;;;31.20;18.50;;;;;;;11.90;100.00;100381.45;105013;1276;100170;-79
2023/10/23 03:42:04;;;;;;;30.10;18.30;;;;;;;11.89;100.00;100386.36;105088;1287;99856;-79
2023/10/23 03:44:50;;;;;;;30.70;18.50;;;;;;;11.90;100.00;100387.73;104887;1272;97775;-79
2023/10/23 03:47:36;;;;;;;30.10;18.30;;;;;;;11.90;100.00;100390.94;105081;1276;96820;-79
2023/10/23 03:50:22;;;;;;;26.90;18.50;;;;;;;11.88;100.00;100387.05;105141;1272;96647;-79
2023/10/23 03:53:08;;;;;;;30.20;17.40;;;;;;;11.89;100.00;100385.36;105006;1273;100106;-78
2023/10/23 03:55:54;;;;;;;25.50;17.30;;;;;;;11.91;100.00;100380.83;105127;1274;99238;-79
2023/10/23 03:58:40;;;;;;;29.30;18.90;;;;;;;11.93;100.00;100376.17;105072;1274;97891;-79
2023/10/23 04:01:25;;;;;;;24.60;17.80;;;;;;;11.96;100.00;100371.23;105189;1274;96842;-79
2023/10/23 04:04:11;;;;;;;28.90;19.50;;;;;;;11.95;100.00;100370.57;105140;1274;97169;-79
2023/10/23 04:06:56;;;;;;;27.30;18.90;;;;;;;11.95;100.00;100371.43;105065;1274;100090;-80
2023/10/23 04:09:41;;;;;;;29.20;19.30;;;;;;;11.97;100.00;100369.98;105088;1276;99190;-80
2023/10/23 04:12:27;;;;;;;28.20;19.10;;;;;;;11.99;100.00;100372.03;105052;1276;97840;-80
2023/10/23 04:15:13;;;;;;;31.80;20.70;;;;;;;12.00;100.00;100369.91;105020;1276;96677;-79
2023/10/23 04:17:58;;;;;;;31.60;20.60;;;;;;;12.02;100.00;100371.75;104993;1276;96781;-79
2023/10/23 04:20:43;;;;;;;31.80;20.20;;;;;;;12.04;100.00;100371.09;104999;1274;100034;-79
2023/10/23 04:23:29;;;;;;;30.00;19.60;;;;;;;12.06;100.00;100375.94;104983;1276;99943;-79
2023/10/23 04:26:15;;;;;;;32.10;21.60;;;;;;;12.06;100.00;100382.09;104966;1273;97733;-80
2023/10/23 04:29:00;;;;;;;34.30;20.20;;;;;;;12.07;100.00;100382.86;105070;1272;96656;-80
2023/10/23 04:31:46;;;;;;;31.40;21.00;;;;;;;12.07;100.00;100383.70;105569;1274;97906;-79
2023/10/23 04:34:31;;;;;;;33.60;21.90;;;;;;;12.07;100.00;100386.50;105607;1274;100191;-80
2023/10/23 04:37:17;;;;;;;31.30;20.70;;;;;;;12.07;100.00;100390.43;105061;1276;100503;-80
2023/10/23 04:40:04;;;;;;;29.00;21.80;;;;;;;12.08;100.00;100391.50;105122;1272;99083;-80
2023/10/23 04:42:50;;;;;;;30.60;21.70;;;;;;;12.08;100.00;100387.09;105137;1279;97913;-79
2023/10/23 04:45:35;;;;;;;34.10;21.70;;;;;;;12.07;100.00;100391.21;105099;1276;96650;-80
2023/10/23 04:48:21;;;;;;;33.00;21.90;;;;;;;12.05;100.00;100391.01;105005;1273;100101;-79
2023/10/23 04:51:06;;;;;;;34.10;21.30;;;;;;;12.04;100.00;100402.65;105073;1276;100130;-80
2023/10/23 04:53:52;;;;;;;32.50;23.70;;;;;;;12.03;100.00;100412.39;104967;1276;99018;-79
2023/10/23 04:56:39;;;;;;;34.10;24.40;;;;;;;12.03;100.00;100414.59;104944;1273;96744;-79
2023/10/23 04:59:24;;;;;;;37.00;27.20;;;;;;;12.02;100.00;100420.45;105034;1273;97276;-79
2023/10/23 05:02:10;;;;;;;34.40;24.80;;;;;;;12.01;100.00;100430.43;104972;1273;100044;-79
2023/10/23 05:04:55;;;;;;;39.70;26.40;;;;;;;12.01;100.00;100431.80;105082;1275;101065;-79
2023/10/23 05:07:42;;;;;;;37.40;24.90;;;;;;;12.03;100.00;100434.66;105012;1276;97735;-79
2023/10/23 05:10:28;;;;;;;38.90;25.30;;;;;;;12.04;100.00;100436.43;105042;1276;96606;-79
2023/10/23 05:13:13;;;;;;;41.20;25.30;;;;;;;12.06;100.00;100438.87;104949;1273;96677;-78
2023/10/23 05:16:04;;;;;;;33.80;25.30;;;;;;;12.07;100.00;100437.48;105073;1273;101339;-78
2023/10/23 05:18:49;;;;;;;39.10;27.30;;;;;;;12.08;100.00;100443.14;104993;1273;100218;-80
2023/10/23 05:21:35;;;;;;;41.40;26.10;;;;;;;12.06;100.00;100446.92;104936;1271;97854;-79
2023/10/23 05:24:20;;;;;;;33.10;24.40;;;;;;;12.04;100.00;100450.23;105475;1275;96922;-79
2023/10/23 05:27:06;;;;;;;36.50;26.20;;;;;;;12.04;100.00;100458.28;105033;1274;97400;-79
2023/10/23 05:29:51;;;;;;;39.40;27.10;;;;;;;12.06;100.00;100460.59;105053;1274;100011;-80
2023/10/23 05:32:40;;;;;;;37.20;26.10;;;;;;;12.05;100.00;100467.99;104944;1276;99208;-78
2023/10/23 05:35:25;;;;;;;38.50;25.30;;;;;;;12.05;100.00;100469.10;105028;1276;99018;-80
2023/10/23 05:38:11;;;;;;;38.70;25.70;;;;;;;12.05;100.00;100470.56;104935;1274;96641;-80
2023/10/23 05:40:57;;;;;;;39.80;26.90;;;;;;;12.06;100.00;100476.02;104933;1276;97199;-80
2023/10/23 05:43:44;;;;;;;36.70;26.30;;;;;;;12.07;100.00;100476.59;104928;1276;100268;-80
2023/10/23 05:46:29;;;;;;;34.80;25.20;;;;;;;12.08;100.00;100485.89;104982;1271;99309;-79
2023/10/23 05:49:15;;;;;;;38.00;27.20;;;;;;;12.09;100.00;100488.63;104971;1273;98997;-78
2023/10/23 05:52:01;;;;;;;37.00;25.30;;;;;;;12.09;100.00;100493.21;105115;1276;96703;-78
2023/10/23 05:54:46;;;;;;;38.40;27.10;;;;;;;12.09;100.00;100493.20;104978;1273;95918;-78
2023/10/23 05:57:31;;;;;;;38.40;25.90;;;;;;;12.11;100.00;100497.17;105150;1276;100002;-79
2023/10/23 06:00:18;;;;;;;40.20;28.10;;;;;;;12.10;100.00;100503.20;105090;1274;100249;-79
2023/10/23 06:03:03;;;;;;;41.60;29.20;;;;;;;12.09;100.00;100510.34;105135;1273;99050;-79
2023/10/23 06:05:49;;;;;;;46.10;31.10;;;;;;;12.08;100.00;100519.30;105052;1276;96637;-80
2023/10/23 06:08:35;;;;;;;46.20;32.40;;;;;;;12.08;100.00;100522.27;105084;1275;97201;-79
2023/10/23 06:11:20;;;;;;;46.30;32.00;;;;;;;12.08;100.00;100527.65;105522;1274;100114;-80
2023/10/23 06:14:06;;;;;;;42.80;30.40;;;;;;;12.08;100.00;100531.86;105546;1276;99793;-79
2023/10/23 06:16:51;;;;;;;40.50;30.70;;;;;;;12.08;100.00;100532.02;105652;1277;97760;-80
2023/10/23 06:19:37;;;;;;;49.80;35.70;;;;;;;12.07;100.00;100529.30;105697;1276;97056;-80
2023/10/23 06:22:22;;;;;;;51.30;34.30;;;;;;;12.08;100.00;100525.13;105709;1273;96538;-80
2023/10/23 06:25:07;;;;;;;41.10;29.20;;;;;;;12.09;100.00;100528.39;105551;1274;101371;-81
2023/10/23 06:27:53;;;;;;;39.20;27.20;;;;;;;12.10;100.00;100530.84;105573;1273;99104;-79
2023/10/23 06:30:38;;;;;;;36.00;24.50;;;;;;;12.12;100.00;100529.98;104855;1274;98466;-79
2023/10/23 06:33:24;;;;;;;40.90;26.80;;;;;;;12.11;100.00;100531.96;105092;1276;96580;-80
2023/10/23 06:36:09;;;;;;;38.00;25.90;;;;;;;12.12;100.00;100531.56;104990;1276;97198;-80
2023/10/23 06:38:55;;;;;;;39.10;27.20;;;;;;;12.14;100.00;100538.76;104704;1279;101289;-79
2023/10/23 06:41:41;;;;;;;41.10;27.70;;;;;;;12.15;100.00;100544.00;104895;1276;99997;-80
2023/10/23 06:44:28;;;;;;;42.00;27.20;;;;;;;12.16;100.00;100551.45;105698;1274;97769;-80
2023/10/23 06:47:15;;;;;;;42.00;26.70;;;;;;;12.16;100.00;100557.52;105544;1274;96557;-80
2023/10/23 06:50:02;;;;;;;44.70;27.90;;;;;;;12.16;100.00;100563.77;105491;1272;97237;-80
2023/10/23 06:52:48;;;;;;;42.20;28.20;;;;;;;12.17;100.00;100565.41;104899;1276;100888;-80
2023/10/23 06:55:33;;;;;;;39.60;27.20;;;;;;;12.17;100.00;100567.20;104675;1273;100421;-79
2023/10/23 06:58:20;;;;;;;44.70;29.40;;;;;;;12.18;100.00;100572.44;104790;1273;97736;-79
2023/10/23 07:01:07;;;;;;;43.50;29.70;;;;;;;12.18;100.00;100576.00;105273;1276;96688;-79
2023/10/23 07:03:53;;;;;;;46.30;29.40;;;;;;;12.19;100.00;100576.29;105389;1276;96692;-85
2023/10/23 07:06:38;;;;;;;44.50;30.10;;;;;;;12.21;100.00;100577.63;105167;1274;100043;-83
2023/10/23 07:09:24;;;;;;;42.60;28.30;;;;;;;12.21;100.00;100577.30;106295;1273;100148;-89
2023/10/23 07:12:09;;;;;;;43.50;29.70;;;;;;;12.20;100.00;100577.00;106042;1274;97853;-85
2023/10/23 07:14:55;;;;;;;45.30;30.00;;;;;;;12.18;100.00;100586.40;105781;1279;96561;-85
2023/10/23 07:17:41;;;;;;;45.10;28.00;;;;;;;12.18;100.00;100589.09;106092;1274;96542;-87
2023/10/23 07:20:27;;;;;;;47.80;30.50;;;;;;;12.17;100.00;100589.43;105179;1276;100093;-84
2023/10/23 07:23:12;;;;;;;47.00;28.20;;;;;;;12.15;100.00;100595.06;105252;1278;99312;-85
2023/10/23 07:26:07;;;;;;;47.20;29.60;;;;;;;12.12;100.00;100592.00;105055;1276;99077;-84
2023/10/23 07:28:56;;;;;;;46.70;28.20;;;;;;;12.12;100.00;100599.96;104979;1277;96654;-82
2023/10/23 07:31:41;;;;;;;44.70;27.50;;;;;;;12.11;100.00;100597.19;105157;1276;96641;-85
2023/10/23 07:34:27;;;;;;;42.70;26.70;;;;;;;12.11;100.00;100601.81;104999;1273;100611;-82
2023/10/23 07:37:17;;;;;;;41.00;26.80;;;;;;;12.12;100.00;100598.60;105016;1276;99162;-81
2023/10/23 07:40:06;;;;;;;40.30;26.40;;;;;;;12.16;100.00;100603.50;105286;1273;97808;-81
2023/10/23 07:43:00;;;;;;;41.10;27.60;;;;;;;12.18;100.00;100602.27;105386;1273;96650;-91
2023/10/23 07:45:45;;;;;;;39.90;25.60;;;;;;;12.19;100.00;100604.91;105063;1279;97172;-82
2023/10/23 07:48:31;;;;;;;43.70;28.60;;;;;;;12.18;100.00;100606.20;105138;1273;101170;-81
2023/10/23 07:51:17;;;;;;;40.90;25.80;;;;;;;12.18;100.00;100609.46;105281;1274;100348;-88
2023/10/23 07:54:12;;;;;;;39.30;26.20;;;;;;;12.16;100.00;100610.11;105138;1274;98093;-85
2023/10/23 07:56:59;;;;;;;43.60;27.40;;;;;;;12.12;100.00;100608.69;105449;1274;96663;-84
2023/10/23 07:59:44;;;;;;;41.00;26.60;;;;;;;12.14;100.00;100611.46;105130;1276;97069;-85
2023/10/23 08:02:30;;;;;;;44.70;28.70;;;;;;;12.15;100.00;100612.91;105181;1276;100229;-85
2023/10/23 08:05:16;;;;;;;45.00;32.40;;;;;;;12.17;100.00;100612.52;105218;1270;99092;-86
2023/10/23 08:08:01;;;;;;;40.60;26.90;;;;;;;12.18;100.00;100611.33;105108;1273;97973;-86
2023/10/23 08:10:47;;;;;;;46.20;27.80;;;;;;;12.19;100.00;100616.36;105189;1276;96645;-86
2023/10/23 08:13:34;;;;;;;41.70;26.20;;;;;;;12.21;100.00;100618.37;105064;1273;96717;-86
2023/10/23 08:16:20;;;;;;;35.70;25.20;;;;;;;12.25;100.00;100618.80;105303;1273;100111;-86
2023/10/23 08:19:23;;;;;;;39.50;26.60;;;;;;;12.26;100.00;100619.35;105679;1273;99168;-90
2023/10/23 08:22:12;;;;;;;36.80;24.60;;;;;;;12.26;100.00;100616.66;105524;1273;97742;-86
2023/10/23 08:24:57;;;;;;;37.50;27.20;;;;;;;12.29;100.00;100613.30;105274;1277;95890;-87
2023/10/23 08:27:44;;;;;;;36.30;26.20;;;;;;;12.31;100.00;100608.15;105254;1273;96569;-88
2023/10/23 08:30:30;;;;;;;39.60;27.10;;;;;;;12.34;100.00;100611.71;105504;1278;102499;-90
2023/10/23 08:33:17;;;;;;;41.50;27.70;;;;;;;12.39;100.00;100611.98;105091;1276;99267;-86
2023/10/23 08:36:03;;;;;;;39.10;27.60;;;;;;;12.42;100.00;100614.40;105308;1276;98914;-87
2023/10/23 08:38:48;;;;;;;36.30;27.20;;;;;;;12.48;100.00;100614.23;104983;1272;97100;-87
2023/10/23 08:41:36;;;;;;;40.60;27.40;;;;;;;12.55;100.00;100610.51;105309;1273;97025;-85
2023/10/23 08:44:22;;;;;;;37.10;26.40;;;;;;;12.61;100.00;100614.59;105074;1279;100084;-83
2023/10/23 08:47:08;;;;;;;33.40;25.40;;;;;;;12.66;100.00;100614.45;105442;1273;99409;-82
2023/10/23 08:49:56;;;;;;;39.50;26.90;;;;;;;12.74;100.00;100615.98;105950;1274;98603;-92
2023/10/23 08:52:47;;;;;;;40.30;26.80;;;;;;;12.81;100.00;100617.03;105904;1280;97999;-89
2023/10/23 08:55:32;;;;;;;36.70;25.40;;;;;;;12.90;100.00;100621.56;105315;1279;97889;-84
2023/10/23 08:58:21;;;;;;;32.60;23.90;;;;;;;12.94;100.00;100619.52;106180;1273;102399;-80
2023/10/23 09:01:07;;;;;;;31.80;23.70;;;;;;;12.96;100.00;100619.85;106128;1273;99105;-86
2023/10/23 09:07:00;;;;;;;32.10;23.10;;;;;;;12.95;100.00;100627.96;105756;1276;97933;-81
2023/10/23 09:09:46;;;;;;;35.00;24.70;;;;;;;12.97;100.00;100629.13;105847;1276;97830;-81
2023/10/23 09:12:36;;;;;;;33.40;24.30;;;;;;;13.02;100.00;100631.25;105700;1276;101431;-81
2023/10/23 09:15:23;;;;;;;35.00;24.30;;;;;;;13.07;100.00;100631.64;106205;1276;99166;-79
2023/10/23 09:18:14;;;;;;;35.30;24.20;;;;;;;13.12;100.00;100638.89;105424;1273;99003;-88
2023/10/23 09:21:01;;;;;;;34.80;24.50;;;;;;;13.15;100.00;100639.03;105118;1273;98018;-88
2023/10/23 09:24:03;;;;;;;32.40;25.00;;;;;;;13.16;100.00;100637.23;105371;1276;96598;-82
2023/10/23 09:26:50;;;;;;;33.10;24.90;;;;;;;13.18;100.00;100636.52;105459;1274;101429;-91
2023/10/23 09:29:36;;;;;;;35.00;23.70;;;;;;;13.20;100.00;100642.85;105479;1276;99167;-81
2023/10/23 09:32:21;;;;;;;30.20;23.70;;;;;;;13.23;100.00;100642.29;105493;1274;99091;-81
2023/10/23 09:35:08;;;;;;;28.80;23.20;;;;;;;13.26;100.00;100643.79;105399;1276;98006;-81
2023/10/23 09:37:57;;;;;;;30.60;22.70;;;;;;;13.28;100.00;100644.85;105424;1273;97988;-87
2023/10/23 09:40:46;;;;;;;32.00;23.30;;;;;;;13.30;100.00;100645.48;105584;1273;101482;-89
2023/10/23 09:43:33;;;;;;;28.10;22.10;;;;;;;13.32;100.00;100644.17;105870;1276;99234;-88
2023/10/23 09:49:52;;;;;;;26.90;21.20;;;;;;;13.25;100.00;100645.35;105506;1274;98206;-89
2023/10/23 09:52:40;;;;;;;31.50;22.50;;;;;;;13.22;100.00;100652.08;105122;1273;98032;-87
2023/10/23 09:55:28;;;;;;;35.10;27.20;;;;;;;13.23;100.00;100649.32;104873;1276;102787;-84
2023/10/23 09:58:20;;;;;;;26.20;22.90;;;;;;;13.25;100.00;100646.68;104989;1276;99202;-83
2023/10/23 10:01:09;;;;;;;28.20;24.30;;;;;;;13.27;100.00;100644.83;105862;1273;97971;-83
2023/10/23 10:04:03;;;;;;;29.50;24.20;;;;;;;13.30;100.00;100642.58;105485;1273;97992;-83
2023/10/23 10:10:10;;;;;;;;;;;;;;;13.31;100.00;100641.15;105456;1274;101417;-80
2023/10/23 10:12:56;;;;;;;30.30;23.30;;;;;;;13.32;100.00;100637.38;105657;1276;99146;-81
2023/10/23 10:15:43;;;;;;;28.30;23.90;;;;;;;13.34;100.00;100636.26;105010;1273;99021;-80
2023/10/23 10:18:29;;;;;;;30.50;23.40;;;;;;;13.37;100.00;100631.23;105544;1274;98345;-80
2023/10/23 10:21:19;;;;;;;30.70;24.20;;;;;;;13.40;100.00;100625.11;105811;1274;98552;-82
2023/10/23 10:24:05;;;;;;;28.20;23.40;;;;;;;13.43;100.00;100628.67;105519;1273;101498;-81
2023/10/23 10:26:52;;;;;;;31.50;23.20;;;;;;;13.43;100.00;100627.98;105617;1273;99287;-81
2023/10/23 10:29:38;;;;;;;29.00;23.20;;;;;;;13.42;100.00;100628.13;105689;1276;97413;-80
2023/10/23 10:32:23;;;;;;;26.00;22.70;;;;;;;13.44;100.00;100627.64;105647;1273;97905;-80
2023/10/23 10:35:26;;;;;;;31.40;25.30;;;;;;;13.47;100.00;100626.10;105675;1273;97980;-79
2023/10/23 10:38:14;;;;;;;30.80;25.10;;;;;;;13.51;100.00;100627.03;106421;1272;102154;-80
2023/10/23 10:41:01;;;;;;;28.40;23.20;;;;;;;13.55;100.00;100627.58;105085;1273;128635;-80
2023/10/23 10:43:52;;;;;;;26.60;23.60;;;;;;;13.58;100.00;100624.38;105722;1272;97836;-80
2023/10/23 10:46:40;;;;;;;31.60;23.40;;;;;;;13.62;100.00;100623.30;105525;1276;97922;-81
2023/10/23 10:49:31;;;;;;;26.60;23.20;;;;;;;13.68;100.00;100620.66;105700;1273;98427;-79
2023/10/23 10:52:32;;;;;;;28.40;24.60;;;;;;;13.71;100.00;100620.09;105702;1272;102691;-80
2023/10/23 10:55:18;;;;;;;27.60;23.70;;;;;;;13.75;100.00;100619.00;105130;1273;100367;-79
2023/10/23 10:58:05;;;;;;;27.70;23.70;;;;;;;13.80;100.00;100619.97;105735;1272;98839;-80
2023/10/23 11:00:51;;;;;;;33.90;23.90;;;;;;;13.84;100.00;100618.42;105399;1272;98065;-87
2023/10/23 11:03:37;;;;;;;27.70;24.50;;;;;;;13.88;100.00;100618.92;105399;1273;96619;-88
2023/10/23 11:06:24;;;;;;;33.10;26.10;;;;;;;13.92;100.00;100617.48;105107;1274;102193;-79
2023/10/23 11:09:09;;;;;;;30.50;25.10;;;;;;;13.96;100.00;100612.47;105090;1273;100390;-79
2023/10/23 11:11:59;;;;;;;25.90;22.30;;;;;;;14.00;100.00;100611.92;106001;1273;97970;-79
2023/10/23 11:14:46;;;;;;;25.40;22.40;;;;;;;14.00;100.00;100612.67;105360;1276;98078;-79
2023/10/23 11:17:32;;;;;;;27.20;21.70;;;;;;;14.02;100.00;100614.87;105084;1276;98532;-79
2023/10/23 11:20:18;;;;;;;26.90;22.40;;;;;;;14.06;100.00;100610.33;104886;1276;102748;-79
2023/10/23 11:23:04;;;;;;;25.80;21.40;;;;;;;14.09;100.00;100609.77;104935;1276;99298;-79
2023/10/23 11:25:50;;;;;;;28.20;21.00;;;;;;;14.11;100.00;100612.01;104868;1272;99567;-79
2023/10/23 11:28:37;;;;;;;25.20;20.80;;;;;;;14.11;100.00;100612.49;104956;1274;97979;-80
2023/10/23 11:31:23;;;;;;;21.60;19.20;;;;;;;14.13;100.00;100617.09;105312;1276;97940;-79
2023/10/23 11:34:09;;;;;;;21.60;19.10;;;;;;;14.14;100.00;100615.64;105214;1276;101377;-80
2023/10/23 11:36:54;;;;;;;21.10;18.90;;;;;;;14.15;100.00;100615.55;105028;1273;99179;-79
2023/10/23 11:39:43;;;;;;;26.60;18.00;;;;;;;14.17;100.00;100614.19;104939;1273;98989;-79
2023/10/23 11:42:28;;;;;;;19.40;17.40;;;;;;;14.18;100.00;100616.80;105133;1273;97994;-79
2023/10/23 11:45:17;;;;;;;24.80;17.60;;;;;;;14.19;100.00;100614.75;105187;1274;98520;-79
2023/10/23 11:48:04;;;;;;;24.40;17.80;;;;;;;14.21;100.00;100610.40;105683;1273;102619;-89
2023/10/23 11:50:50;;;;;;;17.50;15.70;;;;;;;14.22;100.00;100613.13;105636;1274;99279;-91
2023/10/23 11:53:38;;;;;;;17.40;15.60;;;;;;;14.25;100.00;100615.08;105375;1279;97771;-89
2023/10/23 11:56:26;;;;;;;20.70;17.90;;;;;;;14.26;100.00;100614.63;105232;1273;98023;-82
2023/10/23 11:59:19;;;;;;;20.50;15.30;;;;;;;14.25;100.00;100618.60;105438;1276;98523;-80
2023/10/23 12:02:04;;;;;;;16.50;14.40;;;;;;;14.25;100.00;100617.70;105356;1276;102271;-80
2023/10/23 12:04:49;;;;;;;17.10;14.00;;;;;;;14.26;100.00;100617.61;105318;1273;99099;-80
2023/10/23 12:07:40;;;;;;;16.90;13.50;;;;;;;14.26;100.00;100615.79;105419;1272;98068;-86
2023/10/23 12:10:28;;;;;;;14.20;12.70;;;;;;;14.24;100.00;100613.70;105159;1273;97927;-87
2023/10/23 12:13:14;;;;;;;16.80;13.00;;;;;;;14.20;100.00;100612.10;105519;1276;98125;-87
2023/10/23 12:16:04;;;;;;;17.40;13.50;;;;;;;14.18;100.00;100615.84;105081;1280;103718;-87
2023/10/23 12:18:49;;;;;;;18.10;14.60;;;;;;;14.15;100.00;100615.55;105016;1273;100459;-89
2023/10/23 12:21:35;;;;;;;14.90;13.30;;;;;;;14.12;100.00;100614.52;105248;1272;107579;-81
2023/10/23 12:24:20;;;;;;;16.40;14.10;;;;;;;14.10;100.00;100614.11;105281;1274;98019;-81
2023/10/23 12:27:06;;;;;;;18.30;12.80;;;;;;;14.08;100.00;100613.15;105477;1273;98008;-81